Time;durP1;ratioP1;P1;durP2;ratioP2;P2;SDS_P1;SDS_P2;PMS_P1;PMS_P2;Temp;Humidity;BMP_temperature;BMP_pressure;BME280_temperature;BME280_humidity;BME280_pressure;Samples;Min_cycle;Max_cycle;Signal;HPM_P1;HPM_P2
2023/09/12 00:02:11;;;;;;;48.72;32.13;;;20.40;99.90;;;;;;5028282;28;20095;-65
2023/09/12 00:04:37;;;;;;;48.65;33.80;;;20.40;99.90;;;;;;5031171;28;20038;-64
2023/09/12 00:07:03;;;;;;;45.65;33.25;;;20.40;99.90;;;;;;5030911;28;20045;-65
2023/09/12 00:09:28;;;;;;;47.65;32.17;;;20.40;99.90;;;;;;5025338;28;20036;-65
2023/09/12 00:11:54;;;;;;;45.13;32.03;;;20.40;99.90;;;;;;5031660;28;20075;-65
2023/09/12 00:14:20;;;;;;;42.40;31.20;;;20.40;99.90;;;;;;5031028;28;20037;-65
2023/09/12 00:16:46;;;;;;;43.13;31.08;;;20.40;99.90;;;;;;5031406;28;20060;-65
2023/09/12 00:19:12;;;;;;;41.72;31.88;;;20.40;99.90;;;;;;5030492;28;20120;-65
2023/09/12 00:21:38;;;;;;;43.78;31.77;;;20.40;99.90;;;;;;5014154;28;20132;-65
2023/09/12 00:24:03;;;;;;;39.83;31.88;;;20.40;99.90;;;;;;5029753;28;20037;-65
2023/09/12 00:26:30;;;;;;;43.83;32.90;;;20.30;99.90;;;;;;5031655;28;20095;-65
2023/09/12 00:28:56;;;;;;;43.42;33.42;;;20.40;99.90;;;;;;5030655;28;20041;-65
2023/09/12 00:31:22;;;;;;;45.78;32.50;;;20.30;99.90;;;;;;5031420;28;20048;-65
2023/09/12 00:33:47;;;;;;;46.72;32.28;;;20.40;99.90;;;;;;5030614;28;20037;-65
2023/09/12 00:36:13;;;;;;;44.65;31.65;;;20.40;99.90;;;;;;5029970;28;20124;-65
2023/09/12 00:38:38;;;;;;;40.25;31.55;;;20.40;99.90;;;;;;5027386;28;20711;-65
2023/09/12 00:41:04;;;;;;;42.42;31.65;;;20.40;99.90;;;;;;5030747;28;20499;-65
2023/09/12 00:43:30;;;;;;;42.83;31.95;;;20.30;99.90;;;;;;5030702;28;20045;-65
2023/09/12 00:45:55;;;;;;;40.40;31.23;;;20.40;99.90;;;;;;5043459;28;20512;-64
2023/09/12 00:48:23;;;;;;;41.28;31.77;;;20.30;99.90;;;;;;5038584;28;20143;-65
2023/09/12 00:50:50;;;;;;;44.78;32.95;;;20.30;99.90;;;;;;5033442;28;20033;-65
2023/09/12 00:53:16;;;;;;;45.63;32.30;;;20.30;99.90;;;;;;5030883;28;20037;-65
2023/09/12 00:55:46;;;;;;;41.83;31.95;;;20.30;99.90;;;;;;5038763;28;20048;-65
2023/09/12 00:58:13;;;;;;;48.97;32.42;;;20.20;99.90;;;;;;5032837;28;20049;-65
2023/09/12 01:00:40;;;;;;;44.85;33.05;;;20.20;99.90;;;;;;5032062;28;20123;-65
2023/09/12 01:03:07;;;;;;;44.55;32.60;;;20.30;99.90;;;;;;5035050;28;20041;-65
2023/09/12 01:05:33;;;;;;;40.72;31.05;;;20.20;99.90;;;;;;5034374;28;20037;-64
2023/09/12 01:08:00;;;;;;;44.80;32.95;;;20.20;99.90;;;;;;5029407;28;20040;-64
2023/09/12 01:10:26;;;;;;;43.80;31.98;;;20.10;99.90;;;;;;5029016;28;20063;-65
2023/09/12 01:12:52;;;;;;;47.35;31.45;;;20.00;99.90;;;;;;5031765;28;20052;-65
2023/09/12 01:15:18;;;;;;;41.92;32.30;;;20.00;99.90;;;;;;5030851;28;20509;-65
2023/09/12 01:17:46;;;;;;;41.22;31.73;;;20.00;99.90;;;;;;5026705;28;20037;-65
2023/09/12 01:20:30;;;;;;;41.38;30.80;;;19.90;99.90;;;;;;5033259;28;20041;-64
2023/09/12 01:23:11;;;;;;;40.67;29.52;;;19.90;99.90;;;;;;5029984;28;20128;-65
2023/09/12 01:25:42;;;;;;;41.20;29.25;;;19.80;99.90;;;;;;5024801;28;20056;-64
2023/09/12 01:28:10;;;;;;;41.55;28.67;;;19.80;99.90;;;;;;5031947;28;20127;-64
2023/09/12 01:30:38;;;;;;;39.15;28.27;;;19.80;99.90;;;;;;5014411;28;20095;-64
2023/09/12 01:33:04;;;;;;;35.60;26.63;;;19.80;99.90;;;;;;5030215;28;20042;-65
2023/09/12 01:35:29;;;;;;;36.85;27.60;;;19.70;99.90;;;;;;5030548;28;20115;-64
2023/09/12 01:37:55;;;;;;;37.05;28.00;;;19.70;99.90;;;;;;5031866;28;20080;-64
2023/09/12 01:40:29;;;;;;;38.10;29.17;;;19.70;99.90;;;;;;5031347;28;20210;-64
2023/09/12 01:42:56;;;;;;;38.15;29.23;;;19.70;99.90;;;;;;5030579;28;20046;-64
2023/09/12 01:45:22;;;;;;;41.55;29.92;;;19.70;99.90;;;;;;5030697;28;20040;-64
2023/09/12 01:47:49;;;;;;;40.40;29.52;;;19.60;99.90;;;;;;5032049;28;20034;-65
2023/09/12 01:50:16;;;;;;;42.65;29.88;;;19.60;99.90;;;;;;5029880;28;20735;-64
2023/09/12 01:52:42;;;;;;;43.20;30.60;;;19.60;99.90;;;;;;5036791;28;20034;-64
2023/09/12 01:55:10;;;;;;;44.25;32.22;;;19.60;99.90;;;;;;5019984;28;20087;-64
2023/09/12 01:57:37;;;;;;;44.80;31.88;;;19.60;99.90;;;;;;5029413;28;20108;-64
2023/09/12 02:00:03;;;;;;;41.92;32.25;;;19.60;99.90;;;;;;5031475;28;20045;-64
2023/09/12 02:02:29;;;;;;;46.10;32.78;;;19.50;99.90;;;;;;5031939;28;20116;-64
2023/09/12 02:05:21;;;;;;;47.72;32.83;;;19.60;99.90;;;;;;5029211;28;20217;-64
2023/09/12 02:07:47;;;;;;;47.97;34.72;;;19.60;99.90;;;;;;5023866;28;20152;-64
2023/09/12 02:10:13;;;;;;;47.42;34.05;;;19.60;99.90;;;;;;5032431;28;20041;-64
2023/09/12 02:12:39;;;;;;;48.88;34.53;;;19.50;99.90;;;;;;5005365;28;20064;-64
2023/09/12 02:15:06;;;;;;;46.13;33.85;;;19.50;99.90;;;;;;5030832;28;20101;-64
2023/09/12 02:17:32;;;;;;;45.88;33.35;;;19.50;99.90;;;;;;5031113;28;20045;-64
2023/09/12 02:19:57;;;;;;;49.58;33.25;;;19.50;99.90;;;;;;5012944;28;20111;-64
2023/09/12 02:22:23;;;;;;;49.35;33.22;;;19.50;99.90;;;;;;5029819;28;20048;-64
2023/09/12 02:24:50;;;;;;;44.92;32.03;;;19.50;99.90;;;;;;5028881;28;20214;-64
2023/09/12 02:27:16;;;;;;;46.65;32.65;;;19.50;99.90;;;;;;5031296;28;20496;-64
2023/09/12 02:29:42;;;;;;;42.47;31.38;;;19.50;99.90;;;;;;5013317;28;20065;-65
2023/09/12 02:32:08;;;;;;;48.80;32.83;;;19.50;99.90;;;;;;5030201;28;20048;-64
2023/09/12 02:34:34;;;;;;;45.50;32.28;;;19.50;99.90;;;;;;5035009;28;20025;-64
2023/09/12 02:37:00;;;;;;;43.63;31.38;;;19.50;99.90;;;;;;5030652;28;20099;-64
2023/09/12 02:39:25;;;;;;;47.08;32.55;;;19.50;99.90;;;;;;5010907;28;20069;-64
2023/09/12 02:41:51;;;;;;;44.60;32.50;;;19.50;99.90;;;;;;5030772;28;20120;-64
2023/09/12 02:44:17;;;;;;;45.20;32.58;;;19.50;99.90;;;;;;5030160;28;20113;-64
2023/09/12 02:46:42;;;;;;;42.72;32.08;;;19.50;99.90;;;;;;5012973;28;20095;-64
2023/09/12 02:49:08;;;;;;;44.45;33.45;;;19.50;99.90;;;;;;5030222;28;20029;-64
2023/09/12 02:51:38;;;;;;;47.67;34.67;;;19.60;99.90;;;;;;5030189;28;20033;-64
2023/09/12 02:54:04;;;;;;;50.10;34.35;;;19.50;99.90;;;;;;5016641;28;20514;-64
2023/09/12 02:56:30;;;;;;;49.15;34.92;;;19.50;99.90;;;;;;5029356;28;20037;-64
2023/09/12 02:58:56;;;;;;;48.92;35.22;;;19.60;99.90;;;;;;5012887;28;20049;-64
2023/09/12 03:01:22;;;;;;;46.58;32.95;;;19.60;99.90;;;;;;5029211;28;20087;-64
2023/09/12 03:03:49;;;;;;;45.38;34.15;;;19.60;99.90;;;;;;5025160;28;20416;-64
2023/09/12 03:06:15;;;;;;;43.03;32.80;;;19.60;99.90;;;;;;5035444;28;20045;-64
2023/09/12 03:08:41;;;;;;;42.97;33.03;;;19.50;99.90;;;;;;5013026;28;20041;-64
2023/09/12 03:11:07;;;;;;;45.33;32.45;;;19.50;99.90;;;;;;5033433;28;20128;-64
2023/09/12 03:13:34;;;;;;;43.83;32.42;;;19.50;99.90;;;;;;5035134;28;20271;-64
2023/09/12 03:16:00;;;;;;;42.08;32.90;;;19.50;99.90;;;;;;5027119;28;20077;-64
2023/09/12 03:18:26;;;;;;;42.60;32.63;;;19.50;99.90;;;;;;5034037;28;20112;-65
2023/09/12 03:20:51;;;;;;;44.85;33.05;;;19.50;99.90;;;;;;5035070;28;20519;-65
2023/09/12 03:23:17;;;;;;;43.00;31.98;;;19.50;99.90;;;;;;5032754;28;20046;-65
2023/09/12 03:25:42;;;;;;;40.47;30.65;;;19.50;99.90;;;;;;5034860;28;20034;-64
2023/09/12 03:28:08;;;;;;;38.13;30.88;;;19.50;99.90;;;;;;5034426;28;20092;-64
2023/09/12 03:30:35;;;;;;;39.03;29.65;;;19.50;99.90;;;;;;5034171;28;20033;-64
2023/09/12 03:33:01;;;;;;;78.75;32.95;;;19.50;99.90;;;;;;5013691;28;20053;-64
2023/09/12 03:35:28;;;;;;;44.85;31.98;;;19.50;99.90;;;;;;5032005;28;20522;-64
2023/09/12 03:37:54;;;;;;;38.03;30.55;;;19.50;99.90;;;;;;5028072;28;20117;-64
2023/09/12 03:40:20;;;;;;;95.65;33.42;;;19.50;99.90;;;;;;5034872;28;20073;-64
2023/09/12 03:42:45;;;;;;;61.55;32.22;;;19.40;99.90;;;;;;5029898;28;20040;-64
2023/09/12 03:45:11;;;;;;;38.95;30.95;;;19.40;99.90;;;;;;5033032;28;20041;-64
2023/09/12 03:47:37;;;;;;;39.20;30.75;;;19.40;99.90;;;;;;5033144;28;20487;-64
2023/09/12 03:50:03;;;;;;;41.78;31.92;;;19.30;99.90;;;;;;5031945;28;20046;-63
2023/09/12 03:52:29;;;;;;;40.58;31.38;;;19.40;99.90;;;;;;5029825;28;20434;-64
2023/09/12 03:54:55;;;;;;;43.53;32.63;;;19.40;99.90;;;;;;5026314;28;20423;-64
2023/09/12 03:57:21;;;;;;;43.05;32.75;;;19.30;99.90;;;;;;5018375;28;20052;-64
2023/09/12 03:59:47;;;;;;;42.33;32.85;;;19.30;99.90;;;;;;5031180;28;20030;-64
2023/09/12 04:02:13;;;;;;;41.53;32.85;;;19.30;99.90;;;;;;5013346;28;20049;-64
2023/09/12 04:04:38;;;;;;;39.22;31.25;;;19.30;99.90;;;;;;5065372;22;20041;-77
2023/09/12 04:07:04;;;;;;;41.72;32.47;;;19.20;99.90;;;;;;5041162;28;20037;-77
2023/09/12 04:09:30;;;;;;;40.03;31.85;;;19.20;99.90;;;;;;5033685;28;20408;-77
2023/09/12 04:11:56;;;;;;;41.65;30.98;;;19.20;99.90;;;;;;5039998;28;20041;-77
2023/09/12 04:14:22;;;;;;;41.67;31.08;;;19.20;99.90;;;;;;5034591;28;20076;-77
2023/09/12 04:16:47;;;;;;;41.22;30.95;;;19.20;99.90;;;;;;5032662;28;20568;-77
2023/09/12 04:19:16;;;;;;;47.05;33.25;;;19.20;99.90;;;;;;5029529;28;20045;-78
2023/09/12 04:21:42;;;;;;;67.13;30.42;;;19.20;99.90;;;;;;5042798;28;20045;-78
2023/09/12 04:24:08;;;;;;;63.60;31.60;;;19.10;99.90;;;;;;5034593;28;20117;-78
2023/09/12 04:26:33;;;;;;;40.22;30.15;;;19.10;99.90;;;;;;5034128;28;20048;-78
2023/09/12 04:28:59;;;;;;;37.60;29.38;;;19.10;99.90;;;;;;5036989;28;20083;-78
2023/09/12 04:31:25;;;;;;;35.85;29.70;;;19.00;99.90;;;;;;5052046;28;20126;-77
2023/09/12 04:33:52;;;;;;;37.58;30.05;;;19.00;99.90;;;;;;5034390;28;20416;-77
2023/09/12 04:36:18;;;;;;;40.42;30.95;;;19.10;99.90;;;;;;5037408;28;20507;-77
2023/09/12 04:38:43;;;;;;;38.78;29.95;;;19.00;99.90;;;;;;5040146;28;20124;-78
2023/09/12 04:41:15;;;;;;;39.58;30.88;;;19.00;99.90;;;;;;5038062;28;20131;-78
2023/09/12 04:43:40;;;;;;;39.40;28.83;;;18.90;99.90;;;;;;5034092;28;20396;-79
2023/09/12 04:46:06;;;;;;;38.42;30.42;;;19.00;99.90;;;;;;5039461;28;20048;-78
2023/09/12 04:48:32;;;;;;;39.20;30.00;;;19.00;99.90;;;;;;5035227;28;20401;-78
2023/09/12 04:50:58;;;;;;;35.65;28.73;;;19.00;99.90;;;;;;5042673;28;20045;-78
2023/09/12 04:53:23;;;;;;;35.95;28.95;;;19.00;99.90;;;;;;5043864;28;20033;-78
2023/09/12 04:55:51;;;;;;;41.78;29.15;;;18.90;99.90;;;;;;5048387;28;20045;-78
2023/09/12 04:58:17;;;;;;;36.63;29.25;;;18.80;99.90;;;;;;5041293;28;20044;-78
2023/09/12 05:00:42;;;;;;;33.88;28.55;;;18.80;99.90;;;;;;5033707;28;20040;-78
2023/09/12 05:03:08;;;;;;;36.53;29.33;;;18.80;99.90;;;;;;5031377;28;20038;-78
2023/09/12 05:05:36;;;;;;;34.97;28.60;;;18.80;99.90;;;;;;5032989;28;20442;-78
2023/09/12 05:08:02;;;;;;;33.05;26.90;;;18.80;99.90;;;;;;5051587;28;20552;-78
2023/09/12 05:10:27;;;;;;;35.42;27.77;;;18.80;99.90;;;;;;5034723;28;20136;-78
2023/09/12 05:12:53;;;;;;;37.20;27.45;;;18.80;99.90;;;;;;5033001;28;20037;-78
2023/09/12 05:15:18;;;;;;;39.03;26.35;;;18.80;99.90;;;;;;5044406;28;20587;-78
2023/09/12 05:17:44;;;;;;;32.00;26.48;;;18.80;99.90;;;;;;5031944;28;20043;-77
2023/09/12 05:20:10;;;;;;;30.90;26.52;;;18.70;99.90;;;;;;5032809;28;20516;-77
2023/09/12 05:22:35;;;;;;;31.52;27.33;;;18.70;99.90;;;;;;5029853;28;20048;-77
2023/09/12 05:25:01;;;;;;;39.15;27.30;;;18.70;99.90;;;;;;5030686;28;20037;-77
2023/09/12 05:27:26;;;;;;;30.45;25.92;;;18.60;99.90;;;;;;5026671;28;20072;-77
2023/09/12 05:29:52;;;;;;;33.78;26.23;;;18.60;99.90;;;;;;5046122;28;20049;-77
2023/09/12 05:32:18;;;;;;;39.20;27.98;;;18.60;99.90;;;;;;5043432;28;20037;-77
2023/09/12 05:34:45;;;;;;;34.28;28.05;;;18.60;99.90;;;;;;5033514;28;20065;-77
2023/09/12 05:37:10;;;;;;;35.53;28.45;;;18.90;99.90;;;;;;5048218;28;20420;-77
2023/09/12 05:39:36;;;;;;;38.05;28.75;;;18.60;99.90;;;;;;5034973;28;20047;-77
2023/09/12 05:42:02;;;;;;;36.75;28.08;;;18.60;99.90;;;;;;5030025;28;20048;-78
2023/09/12 05:44:27;;;;;;;38.58;28.40;;;18.70;99.90;;;;;;5027753;28;20583;-77
2023/09/12 05:46:53;;;;;;;36.63;29.23;;;18.60;99.90;;;;;;5030241;28;20449;-77
2023/09/12 05:49:19;;;;;;;35.90;28.38;;;18.70;99.90;;;;;;5030552;28;20306;-77
2023/09/12 05:51:45;;;;;;;37.28;29.40;;;18.70;99.90;;;;;;5047474;28;20492;-77
2023/09/12 05:54:13;;;;;;;38.47;29.67;;;18.70;99.90;;;;;;5030933;28;20374;-77
2023/09/12 05:56:39;;;;;;;37.13;29.05;;;18.70;99.90;;;;;;5051552;28;20424;-78
2023/09/12 05:59:05;;;;;;;36.78;28.92;;;18.80;99.90;;;;;;5040792;28;20388;-77
2023/09/12 06:01:31;;;;;;;37.40;28.50;;;18.70;99.90;;;;;;5032604;28;20040;-77
2023/09/12 06:03:57;;;;;;;37.78;29.45;;;18.80;99.90;;;;;;5036177;28;20127;-77
2023/09/12 06:06:22;;;;;;;35.08;28.65;;;18.80;99.90;;;;;;5032571;28;20040;-77
2023/09/12 06:08:48;;;;;;;37.78;29.05;;;18.80;99.90;;;;;;5045759;28;20087;-77
2023/09/12 06:11:14;;;;;;;36.13;28.38;;;18.90;99.90;;;;;;5033025;28;20048;-78
2023/09/12 06:13:39;;;;;;;34.88;27.90;;;18.90;99.90;;;;;;5049219;28;20307;-78
2023/09/12 06:16:06;;;;;;;33.53;27.05;;;18.90;99.90;;;;;;5035579;28;20049;-77
2023/09/12 06:18:32;;;;;;;35.05;27.92;;;19.00;99.90;;;;;;5050500;28;20036;-77
2023/09/12 06:20:58;;;;;;;35.85;27.73;;;19.00;99.90;;;;;;5034168;28;20077;-79
2023/09/12 06:23:24;;;;;;;35.85;26.25;;;19.10;99.90;;;;;;5033166;28;20056;-78
2023/09/12 06:25:50;;;;;;;34.42;27.67;;;19.00;99.90;;;;;;5034283;28;20155;-78
2023/09/12 06:28:26;;;;;;;36.35;27.55;;;19.10;99.90;;;;;;5034586;28;20480;-78
2023/09/12 06:30:51;;;;;;;34.92;27.63;;;19.20;99.90;;;;;;5043477;28;20485;-78
2023/09/12 06:33:17;;;;;;;37.97;29.08;;;19.10;99.90;;;;;;5048819;28;20130;-78
2023/09/12 06:35:42;;;;;;;37.55;28.25;;;19.20;99.90;;;;;;5028729;28;20045;-78
2023/09/12 06:38:08;;;;;;;39.13;29.13;;;19.20;99.90;;;;;;5029768;28;20072;-78
2023/09/12 06:40:33;;;;;;;35.97;27.58;;;19.20;99.90;;;;;;5050454;28;20044;-78
2023/09/12 06:42:59;;;;;;;38.42;28.50;;;19.20;99.90;;;;;;5042491;28;20044;-78
2023/09/12 06:45:24;;;;;;;39.95;29.52;;;19.20;99.90;;;;;;5041025;28;20551;-78
2023/09/12 06:47:50;;;;;;;91.97;32.40;;;19.30;99.90;;;;;;5044391;28;20072;-78
2023/09/12 06:50:15;;;;;;;42.30;31.08;;;19.30;99.90;;;;;;5053119;28;20559;-78
2023/09/12 06:52:44;;;;;;;43.15;30.73;;;19.30;99.90;;;;;;5021180;28;20047;-77
2023/09/12 06:55:10;;;;;;;44.70;30.70;;;19.30;99.90;;;;;;5035881;28;20102;-78
2023/09/12 06:57:35;;;;;;;48.33;33.00;;;19.30;99.90;;;;;;5028252;28;20492;-77
2023/09/12 07:00:06;;;;;;;43.17;31.80;;;19.40;99.90;;;;;;5037460;28;20094;-77
2023/09/12 07:02:31;;;;;;;48.00;32.53;;;19.30;99.90;;;;;;5035261;28;20064;-77
2023/09/12 07:04:57;;;;;;;48.83;33.70;;;19.30;99.90;;;;;;5033211;28;20068;-77
2023/09/12 07:07:23;;;;;;;55.60;35.72;;;19.30;99.90;;;;;;5023633;28;20049;-77
2023/09/12 07:09:48;;;;;;;50.47;33.85;;;19.40;99.90;;;;;;5036168;28;20385;-77
2023/09/12 07:12:14;;;;;;;55.53;36.30;;;19.40;99.90;;;;;;5049714;28;20460;-77
2023/09/12 07:14:39;;;;;;;60.03;36.90;;;19.40;99.90;;;;;;5033047;28;20084;-78
2023/09/12 07:17:06;;;;;;;55.15;36.47;;;19.50;99.90;;;;;;5030107;28;20288;-77
2023/09/12 07:19:31;;;;;;;56.00;35.70;;;19.50;99.90;;;;;;5035585;28;20076;-77
2023/09/12 07:21:57;;;;;;;57.13;36.08;;;19.50;99.90;;;;;;5049596;28;20080;-77
2023/09/12 07:24:27;;;;;;;51.50;35.33;;;19.60;99.90;;;;;;5050898;28;20045;-77
2023/09/12 07:26:53;;;;;;;54.92;35.42;;;19.60;99.90;;;;;;5042385;28;20552;-77
2023/09/12 07:29:19;;;;;;;55.05;36.75;;;19.60;99.90;;;;;;5041086;28;20055;-78
2023/09/12 07:31:44;;;;;;;56.17;35.78;;;19.50;99.90;;;;;;5046715;28;20496;-78
2023/09/12 07:34:11;;;;;;;53.67;35.08;;;19.50;99.90;;;;;;5049965;28;20184;-76
2023/09/12 07:36:37;;;;;;;55.03;35.58;;;19.50;99.90;;;;;;5040624;28;20045;-80
2023/09/12 07:39:04;;;;;;;55.38;36.00;;;19.50;99.90;;;;;;5031735;28;20083;-77
2023/09/12 07:41:30;;;;;;;56.00;35.90;;;19.50;99.90;;;;;;5031942;28;20077;-77
2023/09/12 07:43:55;;;;;;;58.05;37.45;;;19.40;99.90;;;;;;5033376;28;20045;-77
2023/09/12 07:46:21;;;;;;;64.97;38.38;;;19.50;99.90;;;;;;5029315;28;20046;-77
2023/09/12 07:48:47;;;;;;;60.28;38.00;;;19.40;99.90;;;;;;5041166;28;20115;-78
2023/09/12 07:51:14;;;;;;;61.55;37.72;;;19.40;99.90;;;;;;5032195;28;20076;-78
2023/09/12 07:53:40;;;;;;;62.17;39.25;;;19.50;99.90;;;;;;5033338;28;20040;-78
2023/09/12 07:56:06;;;;;;;60.60;37.28;;;19.50;99.90;;;;;;5035149;28;20043;-79
2023/09/12 07:58:31;;;;;;;58.40;37.60;;;19.50;99.90;;;;;;5034237;28;20036;-78
2023/09/12 08:00:57;;;;;;;62.08;37.75;;;19.50;99.90;;;;;;5033134;28;20044;-78
2023/09/12 08:03:22;;;;;;;66.88;38.78;;;19.50;99.90;;;;;;5034335;28;20049;-77
2023/09/12 08:05:56;;;;;;;63.88;39.42;;;19.50;99.90;;;;;;5041907;28;20041;-77
2023/09/12 08:08:22;;;;;;;69.03;38.03;;;19.50;99.90;;;;;;5032380;28;20045;-78
2023/09/12 08:10:48;;;;;;;61.22;38.47;;;19.50;99.90;;;;;;5030886;28;20041;-77
2023/09/12 08:13:14;;;;;;;63.45;39.53;;;19.50;99.90;;;;;;5029299;28;20040;-78
2023/09/12 08:15:39;;;;;;;61.88;37.95;;;19.50;99.90;;;;;;5044818;28;20037;-78
2023/09/12 08:18:05;;;;;;;63.85;39.40;;;19.50;99.90;;;;;;5029186;28;20127;-77
2023/09/12 08:20:30;;;;;;;58.05;38.63;;;19.50;99.90;;;;;;5029351;28;20052;-78
2023/09/12 08:22:56;;;;;;;64.38;39.50;;;19.40;99.90;;;;;;5044318;28;20088;-78
2023/09/12 08:25:21;;;;;;;62.78;39.63;;;19.50;99.90;;;;;;5022135;28;20053;-78
2023/09/12 08:27:47;;;;;;;62.20;39.67;;;19.50;99.90;;;;;;5034786;28;20069;-78
2023/09/12 08:30:13;;;;;;;58.97;37.50;;;19.60;99.90;;;;;;5035080;28;20595;-79
2023/09/12 08:32:43;;;;;;;58.25;38.50;;;19.60;99.90;;;;;;5013171;28;20076;-78
2023/09/12 08:35:12;;;;;;;58.05;38.42;;;19.60;99.90;;;;;;5032055;28;20037;-79
2023/09/12 08:37:40;;;;;;;58.60;37.47;;;19.70;99.90;;;;;;5035575;28;20129;-81
2023/09/12 08:40:08;;;;;;;56.17;38.13;;;19.70;99.90;;;;;;5039045;28;20112;-80
2023/09/12 08:42:42;;;;;;;56.67;37.13;;;19.80;99.90;;;;;;5027904;28;20132;-78
2023/09/12 08:45:14;;;;;;;58.72;37.45;;;19.90;99.90;;;;;;5037553;28;20520;-77
2023/09/12 08:47:51;;;;;;;53.95;36.60;;;19.90;99.90;;;;;;5036774;28;20041;-78
2023/09/12 08:50:17;;;;;;;60.78;36.92;;;20.00;99.90;;;;;;5034784;28;20053;-77
2023/09/12 08:52:47;;;;;;;50.30;35.22;;;20.00;99.90;;;;;;5028338;28;20090;-77
2023/09/12 08:55:13;;;;;;;51.83;35.40;;;20.00;99.90;;;;;;5038074;28;20049;-77
2023/09/12 08:57:41;;;;;;;51.63;35.25;;;20.10;99.90;;;;;;5017301;28;20037;-79
2023/09/12 09:00:08;;;;;;;52.30;34.78;;;20.20;99.90;;;;;;5036067;28;20064;-79
2023/09/12 09:02:40;;;;;;;55.35;36.45;;;20.40;99.90;;;;;;5040254;28;20045;-78
2023/09/12 09:05:08;;;;;;;51.42;35.28;;;20.50;99.90;;;;;;5029055;28;20090;-78
2023/09/12 09:07:39;;;;;;;52.28;34.58;;;20.60;99.90;;;;;;5038046;28;20033;-78
2023/09/12 09:10:07;;;;;;;47.50;33.88;;;20.70;99.90;;;;;;5038338;28;20128;-78
2023/09/12 09:12:33;;;;;;;48.17;34.20;;;20.80;99.90;;;;;;5040971;28;20033;-78
2023/09/12 09:15:19;;;;;;;45.40;32.72;;;20.80;99.90;;;;;;5026305;28;20037;-78
2023/09/12 09:17:44;;;;;;;48.35;35.53;;;20.90;99.90;;;;;;5025851;28;20040;-78
2023/09/12 09:20:20;;;;;;;51.80;35.42;;;21.00;99.90;;;;;;5035588;28;20037;-78
2023/09/12 09:22:56;;;;;;;52.63;37.08;;;21.10;99.90;;;;;;5030817;28;20382;-78
2023/09/12 09:25:22;;;;;;;48.80;35.63;;;21.20;99.90;;;;;;5039143;28;20068;-78
2023/09/12 09:27:47;;;;;;;46.08;34.67;;;21.30;99.90;;;;;;5032411;28;20094;-78
2023/09/12 09:30:13;;;;;;;50.45;36.53;;;21.30;99.90;;;;;;5042159;28;20045;-78
2023/09/12 09:32:39;;;;;;;49.08;36.03;;;21.50;99.90;;;;;;5031147;28;20190;-78
2023/09/12 09:35:05;;;;;;;53.75;36.08;;;21.50;99.90;;;;;;5028575;28;20041;-78
2023/09/12 09:37:31;;;;;;;50.95;36.60;;;21.60;99.90;;;;;;5030260;28;20489;-78
2023/09/12 09:39:57;;;;;;;49.05;37.08;;;21.70;99.90;;;;;;5039721;28;20052;-78
2023/09/12 09:42:23;;;;;;;46.10;34.67;;;21.80;99.90;;;;;;5031541;28;20041;-78
2023/09/12 09:44:49;;;;;;;49.78;35.75;;;21.90;99.90;;;;;;5038656;28;20118;-78
2023/09/12 09:47:15;;;;;;;44.28;33.75;;;22.10;99.90;;;;;;5022716;28;20075;-77
2023/09/12 09:49:45;;;;;;;46.67;34.60;;;22.10;99.90;;;;;;5028459;28;20102;-78
2023/09/12 09:52:10;;;;;;;46.78;34.35;;;22.20;99.90;;;;;;5033259;28;20040;-78
2023/09/12 09:54:46;;;;;;;40.88;32.50;;;22.20;99.90;;;;;;5034517;28;20048;-77
2023/09/12 09:57:11;;;;;;;45.08;32.10;;;22.40;99.90;;;;;;5049207;28;20036;-78
2023/09/12 09:59:37;;;;;;;36.47;29.30;;;22.60;99.90;;;;;;5033660;28;20049;-78
2023/09/12 10:02:04;;;;;;;;;;;22.90;99.90;;;;;;5034571;28;20543;-78
2023/09/12 10:04:32;;;;;;;37.58;28.80;;;23.10;99.90;;;;;;5053465;22;19924;-77
2023/09/12 10:06:58;;;;;;;36.88;29.90;;;23.20;99.90;;;;;;5020705;28;20099;-76
2023/09/12 10:09:27;;;;;;;36.08;28.15;;;23.20;99.90;;;;;;5035641;28;20451;-79
2023/09/12 10:14:43;;;;;;;40.17;30.15;;;23.30;99.90;;;;;;5037109;28;20067;-79
2023/09/12 10:17:12;;;;;;;37.22;30.00;;;23.60;99.90;;;;;;5039362;28;20071;-79
2023/09/12 10:19:59;;;;;;;36.35;28.63;;;23.30;99.90;;;;;;5027729;28;20033;-78
2023/09/12 10:22:32;;;;;;;36.85;29.60;;;23.30;99.90;;;;;;5025833;28;20401;-77
2023/09/12 10:25:00;;;;;;;33.22;27.30;;;23.30;99.90;;;;;;5023174;28;20041;-78
2023/09/12 10:27:27;;;;;;;33.65;25.75;;;23.30;99.90;;;;;;5019555;28;20072;-79
2023/09/12 10:29:59;;;;;;;32.97;27.70;;;23.20;99.90;;;;;;5024927;28;20044;-79
2023/09/12 10:32:28;;;;;;;32.05;24.27;;;23.30;99.90;;;;;;5013605;28;20566;-79
2023/09/12 10:35:01;;;;;;;29.77;24.48;;;23.80;99.90;;;;;;5038811;28;20401;-78
2023/09/12 10:37:29;;;;;;;33.28;26.85;;;24.20;99.90;;;;;;5021897;28;20032;-79
2023/09/12 10:40:00;;;;;;;29.98;25.98;;;24.20;99.90;;;;;;5024395;28;20303;-79
2023/09/12 10:42:32;;;;;;;30.50;25.33;;;24.20;99.90;;;;;;5022805;28;20041;-79
2023/09/12 10:45:00;;;;;;;30.23;25.60;;;24.20;99.90;;;;;;5024181;28;20810;-79
2023/09/12 10:47:27;;;;;;;28.50;23.83;;;24.30;99.90;;;;;;5042306;28;21169;-79
2023/09/12 10:49:52;;;;;;;27.45;24.40;;;24.20;99.90;;;;;;5057944;28;20060;-79
2023/09/12 10:52:29;;;;;;;29.35;25.15;;;24.20;99.90;;;;;;5045628;28;20071;-78
2023/09/12 10:54:55;;;;;;;30.77;24.38;;;24.10;99.90;;;;;;5023978;28;20040;-78
2023/09/12 10:57:24;;;;;;;26.90;23.67;;;24.00;99.90;;;;;;5044589;28;20045;-79
2023/09/12 11:00:08;;;;;;;30.35;24.05;;;24.00;99.90;;;;;;5022994;28;20044;-79
2023/09/12 11:02:45;;;;;;;28.35;23.60;;;23.90;99.90;;;;;;5017857;28;20037;-79
2023/09/12 11:05:30;;;;;;;29.85;23.70;;;23.80;99.90;;;;;;5026293;28;20281;-79
2023/09/12 11:08:04;;;;;;;27.80;24.02;;;23.80;99.90;;;;;;5013508;28;20041;-79
2023/09/12 11:10:32;;;;;;;32.00;24.67;;;23.60;99.90;;;;;;5024374;28;20408;-80
2023/09/12 11:12:58;;;;;;;30.67;25.50;;;23.90;99.90;;;;;;5025948;28;20392;-79
2023/09/12 11:15:26;;;;;;;30.17;24.02;;;24.10;99.90;;;;;;5020350;28;20069;-79
2023/09/12 11:18:05;;;;;;;31.42;24.08;;;24.20;99.90;;;;;;5025347;28;20076;-79
2023/09/12 11:20:59;;;;;;;27.80;22.98;;;24.40;99.90;;;;;;5052292;28;20048;-78
2023/09/12 11:23:25;;;;;;;29.38;23.33;;;24.40;99.90;;;;;;5014609;28;20048;-78
2023/09/12 11:26:08;;;;;;;32.05;24.25;;;24.60;99.90;;;;;;5026861;28;20098;-78
2023/09/12 11:28:34;;;;;;;29.63;23.00;;;24.70;99.90;;;;;;5052939;28;20048;-79
2023/09/12 11:30:59;;;;;;;25.85;21.45;;;24.80;99.90;;;;;;5031932;28;20049;-79
2023/09/12 11:33:26;;;;;;;26.45;21.52;;;24.80;99.90;;;;;;5041105;28;20136;-80
2023/09/12 11:35:57;;;;;;;27.58;20.92;;;25.00;99.90;;;;;;5030033;28;20036;-80
2023/09/12 11:38:29;;;;;;;24.38;19.95;;;24.90;99.90;;;;;;5046776;28;20467;-80
2023/09/12 11:40:55;;;;;;;23.58;20.35;;;25.00;99.90;;;;;;5023654;28;20060;-80
2023/09/12 11:43:26;;;;;;;25.45;20.42;;;25.10;99.90;;;;;;5045403;28;20045;-78
2023/09/12 11:45:55;;;;;;;23.33;18.27;;;25.00;99.90;;;;;;5025845;28;20036;-79
2023/09/12 11:48:22;;;;;;;;;;;25.20;99.90;;;;;;5056670;28;20041;-77
2023/09/12 11:50:54;;;;;;;;;;;25.40;99.90;;;;;;5027088;28;20303;-80
2023/09/12 11:53:30;;;;;;;26.13;19.05;;;25.50;99.90;;;;;;5028863;28;19917;-79
2023/09/12 11:56:00;;;;;;;25.92;18.77;;;25.60;99.90;;;;;;5042364;28;20102;-80
2023/09/12 11:58:27;;;;;;;17.05;13.88;;;25.80;99.90;;;;;;5031847;28;20040;-79
2023/09/12 12:00:56;;;;;;;;;;;26.00;99.90;;;;;;5021432;28;20037;-79
2023/09/12 12:03:28;;;;;;;18.90;15.05;;;26.10;99.90;;;;;;5051759;28;19942;-78
2023/09/12 12:05:55;;;;;;;27.70;15.90;;;26.30;99.90;;;;;;5053428;28;20560;-78
2023/09/12 12:08:21;;;;;;;20.67;16.73;;;26.40;99.90;;;;;;5031136;28;20038;-78
2023/09/12 12:10:51;;;;;;;19.08;14.50;;;26.50;99.90;;;;;;5051512;28;20076;-79
2023/09/12 12:13:21;;;;;;;17.73;13.23;;;26.40;99.90;;;;;;5034231;28;20064;-79
2023/09/12 12:15:47;;;;;;;21.38;12.48;;;26.40;99.90;;;;;;5047370;28;20099;-79
2023/09/12 12:18:14;;;;;;;17.98;12.43;;;26.10;99.90;;;;;;5039856;28;20463;-79
2023/09/12 12:20:40;;;;;;;17.20;12.65;;;26.00;99.90;;;;;;5031263;28;20492;-79
2023/09/12 12:23:06;;;;;;;18.15;11.30;;;26.10;99.90;;;;;;5015372;28;20045;-79
2023/09/12 12:25:34;;;;;;;14.50;10.70;;;26.20;99.90;;;;;;5018581;28;20040;-79
2023/09/12 12:28:00;;;;;;;15.88;11.13;;;26.20;99.90;;;;;;5019010;28;20049;-79
2023/09/12 12:30:29;;;;;;;18.65;11.82;;;26.00;99.90;;;;;;5036202;28;20619;-79
2023/09/12 12:32:55;;;;;;;17.02;12.05;;;25.90;99.90;;;;;;5019904;28;20038;-79